sensor_id;sensor_type;location;lat;lon;timestamp;P1;durP1;ratioP1;P2;durP2;ratioP2
24637;SDS011;12773;50.162;8.548;2024-02-21T00:02:33;21.73;;;5.60;;
24637;SDS011;12773;50.162;8.548;2024-02-21T00:05:20;20.48;;;4.62;;
24637;SDS011;12773;50.162;8.548;2024-02-21T00:08:08;19.00;;;5.10;;
24637;SDS011;12773;50.162;8.548;2024-02-21T00:10:56;17.35;;;5.53;;
24637;SDS011;12773;50.162;8.548;2024-02-21T00:13:44;23.62;;;5.25;;
24637;SDS011;12773;50.162;8.548;2024-02-21T00:16:31;24.90;;;6.00;;
24637;SDS011;12773;50.162;8.548;2024-02-21T00:19:19;22.75;;;5.42;;
24637;SDS011;12773;50.162;8.548;2024-02-21T00:22:06;21.37;;;5.35;;
24637;SDS011;12773;50.162;8.548;2024-02-21T00:24:54;27.73;;;5.60;;
24637;SDS011;12773;50.162;8.548;2024-02-21T00:27:42;25.80;;;5.35;;
24637;SDS011;12773;50.162;8.548;2024-02-21T00:30:29;28.12;;;5.75;;
24637;SDS011;12773;50.162;8.548;2024-02-21T00:33:17;22.77;;;5.35;;
24637;SDS011;12773;50.162;8.548;2024-02-21T00:36:05;20.72;;;5.87;;
24637;SDS011;12773;50.162;8.548;2024-02-21T00:38:52;22.37;;;6.10;;
24637;SDS011;12773;50.162;8.548;2024-02-21T00:41:40;19.57;;;5.92;;
24637;SDS011;12773;50.162;8.548;2024-02-21T00:44:27;24.57;;;5.85;;
24637;SDS011;12773;50.162;8.548;2024-02-21T00:47:15;26.60;;;5.78;;
24637;SDS011;12773;50.162;8.548;2024-02-21T00:50:03;22.82;;;5.40;;
24637;SDS011;12773;50.162;8.548;2024-02-21T00:52:52;18.15;;;4.95;;
24637;SDS011;12773;50.162;8.548;2024-02-21T00:55:39;29.23;;;5.70;;
24637;SDS011;12773;50.162;8.548;2024-02-21T00:58:28;20.32;;;5.65;;
24637;SDS011;12773;50.162;8.548;2024-02-21T01:01:22;19.35;;;5.62;;
24637;SDS011;12773;50.162;8.548;2024-02-21T01:04:12;27.32;;;5.92;;
24637;SDS011;12773;50.162;8.548;2024-02-21T01:06:59;18.50;;;6.08;;
24637;SDS011;12773;50.162;8.548;2024-02-21T01:09:47;23.50;;;6.12;;
24637;SDS011;12773;50.162;8.548;2024-02-21T01:12:36;23.40;;;5.75;;
24637;SDS011;12773;50.162;8.548;2024-02-21T01:15:23;23.27;;;5.80;;
24637;SDS011;12773;50.162;8.548;2024-02-21T01:18:11;22.05;;;6.58;;
24637;SDS011;12773;50.162;8.548;2024-02-21T01:20:58;22.80;;;5.35;;
24637;SDS011;12773;50.162;8.548;2024-02-21T01:23:46;20.72;;;5.15;;
24637;SDS011;12773;50.162;8.548;2024-02-21T01:26:34;26.65;;;5.62;;
24637;SDS011;12773;50.162;8.548;2024-02-21T01:29:21;23.22;;;6.17;;
24637;SDS011;12773;50.162;8.548;2024-02-21T01:32:09;25.52;;;6.03;;
24637;SDS011;12773;50.162;8.548;2024-02-21T01:34:57;22.73;;;6.35;;
24637;SDS011;12773;50.162;8.548;2024-02-21T01:37:44;16.45;;;5.80;;
24637;SDS011;12773;50.162;8.548;2024-02-21T01:40:32;26.62;;;6.12;;
24637;SDS011;12773;50.162;8.548;2024-02-21T01:43:19;20.77;;;6.30;;
24637;SDS011;12773;50.162;8.548;2024-02-21T01:46:07;17.65;;;5.65;;
24637;SDS011;12773;50.162;8.548;2024-02-21T01:48:55;19.07;;;5.62;;
24637;SDS011;12773;50.162;8.548;2024-02-21T01:51:44;25.08;;;6.10;;
24637;SDS011;12773;50.162;8.548;2024-02-21T01:54:32;29.12;;;6.42;;
24637;SDS011;12773;50.162;8.548;2024-02-21T01:57:19;21.15;;;6.30;;
24637;SDS011;12773;50.162;8.548;2024-02-21T02:00:07;21.60;;;5.95;;
24637;SDS011;12773;50.162;8.548;2024-02-21T02:02:58;23.80;;;6.15;;
24637;SDS011;12773;50.162;8.548;2024-02-21T02:05:46;22.48;;;5.97;;
24637;SDS011;12773;50.162;8.548;2024-02-21T02:08:35;24.50;;;6.80;;
24637;SDS011;12773;50.162;8.548;2024-02-21T02:11:23;23.98;;;6.87;;
24637;SDS011;12773;50.162;8.548;2024-02-21T02:14:10;29.67;;;5.75;;
24637;SDS011;12773;50.162;8.548;2024-02-21T02:16:58;20.85;;;6.03;;
24637;SDS011;12773;50.162;8.548;2024-02-21T02:19:45;25.60;;;6.33;;
24637;SDS011;12773;50.162;8.548;2024-02-21T02:22:32;25.12;;;6.60;;
24637;SDS011;12773;50.162;8.548;2024-02-21T02:25:23;18.73;;;6.03;;
24637;SDS011;12773;50.162;8.548;2024-02-21T02:28:10;22.07;;;6.12;;
24637;SDS011;12773;50.162;8.548;2024-02-21T02:30:58;20.00;;;5.85;;
24637;SDS011;12773;50.162;8.548;2024-02-21T02:33:45;19.75;;;5.87;;
24637;SDS011;12773;50.162;8.548;2024-02-21T02:36:34;17.77;;;6.15;;
24637;SDS011;12773;50.162;8.548;2024-02-21T02:39:21;15.95;;;5.58;;
24637;SDS011;12773;50.162;8.548;2024-02-21T02:42:09;16.27;;;5.65;;
24637;SDS011;12773;50.162;8.548;2024-02-21T02:44:56;20.55;;;5.75;;
24637;SDS011;12773;50.162;8.548;2024-02-21T02:47:46;20.35;;;5.55;;
24637;SDS011;12773;50.162;8.548;2024-02-21T02:50:34;17.07;;;5.60;;
24637;SDS011;12773;50.162;8.548;2024-02-21T02:53:21;19.30;;;4.85;;
24637;SDS011;12773;50.162;8.548;2024-02-21T02:56:13;18.05;;;6.05;;
24637;SDS011;12773;50.162;8.548;2024-02-21T02:59:01;21.17;;;5.85;;
24637;SDS011;12773;50.162;8.548;2024-02-21T03:01:49;18.48;;;5.15;;
24637;SDS011;12773;50.162;8.548;2024-02-21T03:04:39;19.30;;;5.05;;
24637;SDS011;12773;50.162;8.548;2024-02-21T03:07:26;20.48;;;5.47;;
24637;SDS011;12773;50.162;8.548;2024-02-21T03:10:14;20.27;;;5.65;;
24637;SDS011;12773;50.162;8.548;2024-02-21T03:13:05;23.07;;;5.60;;
24637;SDS011;12773;50.162;8.548;2024-02-21T03:15:52;20.57;;;6.10;;
24637;SDS011;12773;50.162;8.548;2024-02-21T03:18:40;18.65;;;6.00;;
24637;SDS011;12773;50.162;8.548;2024-02-21T03:21:28;21.15;;;6.28;;
24637;SDS011;12773;50.162;8.548;2024-02-21T03:24:16;19.02;;;6.12;;
24637;SDS011;12773;50.162;8.548;2024-02-21T03:27:04;15.32;;;6.08;;
24637;SDS011;12773;50.162;8.548;2024-02-21T03:29:51;22.50;;;5.95;;
24637;SDS011;12773;50.162;8.548;2024-02-21T03:32:38;20.37;;;5.55;;
24637;SDS011;12773;50.162;8.548;2024-02-21T03:35:26;24.20;;;6.28;;
24637;SDS011;12773;50.162;8.548;2024-02-21T03:38:14;19.23;;;6.15;;
24637;SDS011;12773;50.162;8.548;2024-02-21T03:41:01;26.90;;;6.30;;
24637;SDS011;12773;50.162;8.548;2024-02-21T03:43:49;25.85;;;6.00;;
24637;SDS011;12773;50.162;8.548;2024-02-21T03:46:37;29.42;;;6.35;;
24637;SDS011;12773;50.162;8.548;2024-02-21T03:49:24;26.23;;;6.37;;
24637;SDS011;12773;50.162;8.548;2024-02-21T03:52:12;26.60;;;6.45;;
24637;SDS011;12773;50.162;8.548;2024-02-21T03:54:59;15.72;;;5.35;;
24637;SDS011;12773;50.162;8.548;2024-02-21T03:57:47;22.45;;;5.83;;
24637;SDS011;12773;50.162;8.548;2024-02-21T04:00:35;19.02;;;5.70;;
24637;SDS011;12773;50.162;8.548;2024-02-21T04:03:22;21.02;;;5.85;;
24637;SDS011;12773;50.162;8.548;2024-02-21T04:06:09;20.48;;;6.12;;
24637;SDS011;12773;50.162;8.548;2024-02-21T04:08:57;22.22;;;5.90;;
24637;SDS011;12773;50.162;8.548;2024-02-21T04:11:45;20.12;;;5.70;;
24637;SDS011;12773;50.162;8.548;2024-02-21T04:14:32;22.32;;;6.90;;
24637;SDS011;12773;50.162;8.548;2024-02-21T04:17:20;18.85;;;5.95;;
24637;SDS011;12773;50.162;8.548;2024-02-21T04:20:13;17.82;;;6.80;;
24637;SDS011;12773;50.162;8.548;2024-02-21T04:22:59;25.97;;;6.85;;
24637;SDS011;12773;50.162;8.548;2024-02-21T04:25:46;27.95;;;6.72;;
24637;SDS011;12773;50.162;8.548;2024-02-21T04:28:34;28.50;;;7.17;;
24637;SDS011;12773;50.162;8.548;2024-02-21T04:31:21;23.47;;;6.45;;
24637;SDS011;12773;50.162;8.548;2024-02-21T04:34:09;31.05;;;7.62;;
24637;SDS011;12773;50.162;8.548;2024-02-21T04:36:57;18.17;;;6.65;;
24637;SDS011;12773;50.162;8.548;2024-02-21T04:39:44;26.52;;;7.80;;
24637;SDS011;12773;50.162;8.548;2024-02-21T04:42:31;23.75;;;7.55;;
24637;SDS011;12773;50.162;8.548;2024-02-21T04:45:19;31.45;;;8.08;;
24637;SDS011;12773;50.162;8.548;2024-02-21T04:48:07;21.65;;;7.25;;
24637;SDS011;12773;50.162;8.548;2024-02-21T04:50:54;25.30;;;7.22;;
24637;SDS011;12773;50.162;8.548;2024-02-21T04:53:41;25.32;;;7.28;;
24637;SDS011;12773;50.162;8.548;2024-02-21T04:56:29;26.52;;;7.53;;
24637;SDS011;12773;50.162;8.548;2024-02-21T04:59:17;23.12;;;6.78;;
24637;SDS011;12773;50.162;8.548;2024-02-21T05:02:04;23.90;;;7.97;;
24637;SDS011;12773;50.162;8.548;2024-02-21T05:04:52;21.37;;;8.13;;
24637;SDS011;12773;50.162;8.548;2024-02-21T05:07:40;17.98;;;6.78;;
24637;SDS011;12773;50.162;8.548;2024-02-21T05:10:27;25.12;;;7.95;;
24637;SDS011;12773;50.162;8.548;2024-02-21T05:13:15;23.47;;;7.70;;
24637;SDS011;12773;50.162;8.548;2024-02-21T05:16:02;25.90;;;7.80;;
24637;SDS011;12773;50.162;8.548;2024-02-21T05:18:50;28.12;;;8.75;;
24637;SDS011;12773;50.162;8.548;2024-02-21T05:21:37;24.50;;;7.70;;
24637;SDS011;12773;50.162;8.548;2024-02-21T05:24:25;20.25;;;7.15;;
24637;SDS011;12773;50.162;8.548;2024-02-21T05:27:12;25.70;;;6.97;;
24637;SDS011;12773;50.162;8.548;2024-02-21T05:29:59;21.68;;;6.80;;
24637;SDS011;12773;50.162;8.548;2024-02-21T05:32:47;25.65;;;6.75;;
24637;SDS011;12773;50.162;8.548;2024-02-21T05:35:34;22.60;;;6.40;;
24637;SDS011;12773;50.162;8.548;2024-02-21T05:38:23;23.55;;;7.72;;
24637;SDS011;12773;50.162;8.548;2024-02-21T05:41:11;23.38;;;6.72;;
24637;SDS011;12773;50.162;8.548;2024-02-21T05:43:59;20.12;;;6.33;;
24637;SDS011;12773;50.162;8.548;2024-02-21T05:46:46;19.15;;;6.60;;
24637;SDS011;12773;50.162;8.548;2024-02-21T05:49:33;28.75;;;7.78;;
24637;SDS011;12773;50.162;8.548;2024-02-21T05:52:21;32.45;;;10.70;;
24637;SDS011;12773;50.162;8.548;2024-02-21T05:55:08;27.95;;;7.75;;
24637;SDS011;12773;50.162;8.548;2024-02-21T05:57:56;22.40;;;6.92;;
24637;SDS011;12773;50.162;8.548;2024-02-21T06:00:44;20.57;;;6.20;;
24637;SDS011;12773;50.162;8.548;2024-02-21T06:03:31;20.12;;;6.97;;
24637;SDS011;12773;50.162;8.548;2024-02-21T06:06:19;21.77;;;6.55;;
24637;SDS011;12773;50.162;8.548;2024-02-21T06:09:07;20.62;;;6.25;;
24637;SDS011;12773;50.162;8.548;2024-02-21T06:11:55;29.85;;;7.03;;
24637;SDS011;12773;50.162;8.548;2024-02-21T06:14:42;18.75;;;6.40;;
24637;SDS011;12773;50.162;8.548;2024-02-21T06:17:29;17.35;;;5.97;;
24637;SDS011;12773;50.162;8.548;2024-02-21T06:20:17;31.80;;;6.95;;
24637;SDS011;12773;50.162;8.548;2024-02-21T06:23:04;27.05;;;6.65;;
24637;SDS011;12773;50.162;8.548;2024-02-21T06:25:52;22.25;;;7.20;;
24637;SDS011;12773;50.162;8.548;2024-02-21T06:28:39;19.55;;;6.80;;
24637;SDS011;12773;50.162;8.548;2024-02-21T06:31:27;21.33;;;6.58;;
24637;SDS011;12773;50.162;8.548;2024-02-21T06:34:17;18.05;;;6.80;;
24637;SDS011;12773;50.162;8.548;2024-02-21T06:37:05;21.87;;;7.20;;
24637;SDS011;12773;50.162;8.548;2024-02-21T06:39:52;23.10;;;7.45;;
24637;SDS011;12773;50.162;8.548;2024-02-21T06:42:40;18.73;;;7.22;;
24637;SDS011;12773;50.162;8.548;2024-02-21T06:45:27;22.65;;;7.22;;
24637;SDS011;12773;50.162;8.548;2024-02-21T06:48:15;25.97;;;8.05;;
24637;SDS011;12773;50.162;8.548;2024-02-21T06:51:02;24.57;;;7.97;;
24637;SDS011;12773;50.162;8.548;2024-02-21T06:53:50;23.07;;;8.90;;
24637;SDS011;12773;50.162;8.548;2024-02-21T06:56:39;23.42;;;8.68;;
24637;SDS011;12773;50.162;8.548;2024-02-21T06:59:26;24.15;;;8.53;;
24637;SDS011;12773;50.162;8.548;2024-02-21T07:02:14;23.60;;;8.58;;
24637;SDS011;12773;50.162;8.548;2024-02-21T07:05:02;21.75;;;8.28;;
24637;SDS011;12773;50.162;8.548;2024-02-21T07:07:49;19.98;;;7.40;;
24637;SDS011;12773;50.162;8.548;2024-02-21T07:10:37;15.70;;;7.15;;
24637;SDS011;12773;50.162;8.548;2024-02-21T07:13:25;15.55;;;7.25;;
24637;SDS011;12773;50.162;8.548;2024-02-21T07:16:13;16.93;;;7.22;;
24637;SDS011;12773;50.162;8.548;2024-02-21T07:19:00;23.20;;;8.20;;
24637;SDS011;12773;50.162;8.548;2024-02-21T07:21:48;20.20;;;7.78;;
24637;SDS011;12773;50.162;8.548;2024-02-21T07:24:36;20.88;;;7.53;;
24637;SDS011;12773;50.162;8.548;2024-02-21T07:27:24;25.80;;;8.30;;
24637;SDS011;12773;50.162;8.548;2024-02-21T07:30:13;21.33;;;7.67;;
24637;SDS011;12773;50.162;8.548;2024-02-21T07:33:02;20.77;;;7.55;;
24637;SDS011;12773;50.162;8.548;2024-02-21T07:35:50;28.50;;;11.05;;
24637;SDS011;12773;50.162;8.548;2024-02-21T07:38:38;28.47;;;8.98;;
24637;SDS011;12773;50.162;8.548;2024-02-21T07:41:25;21.77;;;8.63;;
24637;SDS011;12773;50.162;8.548;2024-02-21T07:44:15;22.52;;;9.20;;
24637;SDS011;12773;50.162;8.548;2024-02-21T07:47:02;25.20;;;8.63;;
24637;SDS011;12773;50.162;8.548;2024-02-21T07:49:52;27.07;;;9.20;;
24637;SDS011;12773;50.162;8.548;2024-02-21T07:52:39;22.05;;;9.65;;
24637;SDS011;12773;50.162;8.548;2024-02-21T07:55:26;22.67;;;10.20;;
24637;SDS011;12773;50.162;8.548;2024-02-21T07:58:13;24.67;;;10.08;;
24637;SDS011;12773;50.162;8.548;2024-02-21T08:01:01;28.95;;;10.10;;
24637;SDS011;12773;50.162;8.548;2024-02-21T08:03:48;22.02;;;10.60;;
24637;SDS011;12773;50.162;8.548;2024-02-21T08:06:36;24.87;;;11.18;;
24637;SDS011;12773;50.162;8.548;2024-02-21T08:09:23;27.52;;;11.08;;
24637;SDS011;12773;50.162;8.548;2024-02-21T08:12:11;24.90;;;10.60;;
24637;SDS011;12773;50.162;8.548;2024-02-21T08:14:58;23.95;;;10.48;;
24637;SDS011;12773;50.162;8.548;2024-02-21T08:17:46;24.92;;;10.90;;
24637;SDS011;12773;50.162;8.548;2024-02-21T08:20:34;30.35;;;11.48;;
24637;SDS011;12773;50.162;8.548;2024-02-21T08:23:23;31.15;;;10.72;;
24637;SDS011;12773;50.162;8.548;2024-02-21T08:26:10;29.07;;;10.32;;
24637;SDS011;12773;50.162;8.548;2024-02-21T08:28:58;27.80;;;10.63;;
24637;SDS011;12773;50.162;8.548;2024-02-21T08:31:46;33.58;;;11.38;;
24637;SDS011;12773;50.162;8.548;2024-02-21T08:34:34;26.35;;;9.88;;
24637;SDS011;12773;50.162;8.548;2024-02-21T08:37:22;29.37;;;10.40;;
24637;SDS011;12773;50.162;8.548;2024-02-21T08:40:09;28.35;;;9.83;;
24637;SDS011;12773;50.162;8.548;2024-02-21T08:42:57;24.63;;;9.65;;
24637;SDS011;12773;50.162;8.548;2024-02-21T08:45:44;24.90;;;9.90;;
24637;SDS011;12773;50.162;8.548;2024-02-21T08:48:32;25.25;;;10.40;;
24637;SDS011;12773;50.162;8.548;2024-02-21T08:51:20;26.82;;;10.05;;
24637;SDS011;12773;50.162;8.548;2024-02-21T08:54:08;22.80;;;9.55;;
24637;SDS011;12773;50.162;8.548;2024-02-21T08:56:55;29.65;;;10.23;;
24637;SDS011;12773;50.162;8.548;2024-02-21T08:59:43;28.12;;;10.93;;
24637;SDS011;12773;50.162;8.548;2024-02-21T09:02:30;25.02;;;9.83;;
24637;SDS011;12773;50.162;8.548;2024-02-21T09:05:18;24.60;;;10.38;;
24637;SDS011;12773;50.162;8.548;2024-02-21T09:08:06;26.10;;;9.35;;
24637;SDS011;12773;50.162;8.548;2024-02-21T09:10:54;23.85;;;10.13;;
24637;SDS011;12773;50.162;8.548;2024-02-21T09:13:41;24.98;;;10.98;;
24637;SDS011;12773;50.162;8.548;2024-02-21T09:16:32;25.60;;;11.50;;
24637;SDS011;12773;50.162;8.548;2024-02-21T09:19:19;27.82;;;11.15;;
24637;SDS011;12773;50.162;8.548;2024-02-21T09:22:07;29.92;;;10.40;;
24637;SDS011;12773;50.162;8.548;2024-02-21T09:24:55;28.30;;;10.25;;
24637;SDS011;12773;50.162;8.548;2024-02-21T09:27:43;23.45;;;9.75;;
24637;SDS011;12773;50.162;8.548;2024-02-21T09:30:31;23.15;;;9.98;;
24637;SDS011;12773;50.162;8.548;2024-02-21T09:33:19;24.70;;;9.50;;
24637;SDS011;12773;50.162;8.548;2024-02-21T09:36:08;28.75;;;9.40;;
24637;SDS011;12773;50.162;8.548;2024-02-21T09:38:56;23.70;;;7.50;;
24637;SDS011;12773;50.162;8.548;2024-02-21T09:41:45;26.57;;;9.45;;
24637;SDS011;12773;50.162;8.548;2024-02-21T09:44:39;19.95;;;8.00;;
24637;SDS011;12773;50.162;8.548;2024-02-21T09:47:31;13.25;;;6.60;;
24637;SDS011;12773;50.162;8.548;2024-02-21T09:50:19;22.98;;;7.42;;
24637;SDS011;12773;50.162;8.548;2024-02-21T09:53:08;16.85;;;6.37;;
24637;SDS011;12773;50.162;8.548;2024-02-21T09:56:16;13.75;;;4.72;;
24637;SDS011;12773;50.162;8.548;2024-02-21T09:59:03;20.77;;;6.03;;
24637;SDS011;12773;50.162;8.548;2024-02-21T10:01:52;17.48;;;5.83;;
24637;SDS011;12773;50.162;8.548;2024-02-21T10:04:40;20.05;;;6.22;;
24637;SDS011;12773;50.162;8.548;2024-02-21T10:07:28;18.73;;;5.80;;
24637;SDS011;12773;50.162;8.548;2024-02-21T10:10:15;13.40;;;5.15;;
24637;SDS011;12773;50.162;8.548;2024-02-21T10:13:04;18.25;;;5.83;;
24637;SDS011;12773;50.162;8.548;2024-02-21T10:16:06;19.77;;;5.75;;
24637;SDS011;12773;50.162;8.548;2024-02-21T10:18:54;11.48;;;4.45;;
24637;SDS011;12773;50.162;8.548;2024-02-21T10:21:42;16.37;;;4.65;;
24637;SDS011;12773;50.162;8.548;2024-02-21T10:24:31;17.20;;;4.78;;
24637;SDS011;12773;50.162;8.548;2024-02-21T10:27:18;11.90;;;4.10;;
24637;SDS011;12773;50.162;8.548;2024-02-21T10:30:07;9.65;;;3.77;;
24637;SDS011;12773;50.162;8.548;2024-02-21T10:32:57;14.00;;;4.28;;
24637;SDS011;12773;50.162;8.548;2024-02-21T10:35:44;15.80;;;4.25;;
24637;SDS011;12773;50.162;8.548;2024-02-21T10:38:32;13.08;;;4.20;;
24637;SDS011;12773;50.162;8.548;2024-02-21T10:41:20;9.85;;;3.77;;
24637;SDS011;12773;50.162;8.548;2024-02-21T10:44:08;16.90;;;3.85;;
24637;SDS011;12773;50.162;8.548;2024-02-21T10:46:57;11.40;;;3.42;;
24637;SDS011;12773;50.162;8.548;2024-02-21T10:49:45;16.42;;;3.77;;
24637;SDS011;12773;50.162;8.548;2024-02-21T10:52:43;14.33;;;4.20;;
24637;SDS011;12773;50.162;8.548;2024-02-21T10:55:38;12.80;;;3.80;;
24637;SDS011;12773;50.162;8.548;2024-02-21T10:58:29;12.93;;;3.92;;
24637;SDS011;12773;50.162;8.548;2024-02-21T11:01:19;10.15;;;3.42;;
24637;SDS011;12773;50.162;8.548;2024-02-21T11:04:08;13.98;;;4.08;;
24637;SDS011;12773;50.162;8.548;2024-02-21T11:06:58;22.75;;;6.92;;
24637;SDS011;12773;50.162;8.548;2024-02-21T11:09:51;14.45;;;4.70;;
24637;SDS011;12773;50.162;8.548;2024-02-21T11:12:41;12.35;;;4.08;;
24637;SDS011;12773;50.162;8.548;2024-02-21T11:15:28;21.45;;;3.70;;
24637;SDS011;12773;50.162;8.548;2024-02-21T11:18:23;12.43;;;3.10;;
24637;SDS011;12773;50.162;8.548;2024-02-21T11:21:11;11.22;;;3.17;;
24637;SDS011;12773;50.162;8.548;2024-02-21T11:23:58;11.33;;;3.17;;
24637;SDS011;12773;50.162;8.548;2024-02-21T11:26:47;20.77;;;3.22;;
24637;SDS011;12773;50.162;8.548;2024-02-21T11:29:43;14.07;;;3.67;;
24637;SDS011;12773;50.162;8.548;2024-02-21T11:32:36;15.23;;;3.42;;
24637;SDS011;12773;50.162;8.548;2024-02-21T11:35:23;13.35;;;3.47;;
24637;SDS011;12773;50.162;8.548;2024-02-21T11:38:11;11.15;;;3.20;;
24637;SDS011;12773;50.162;8.548;2024-02-21T11:41:03;11.48;;;3.45;;
24637;SDS011;12773;50.162;8.548;2024-02-21T11:43:56;10.98;;;3.05;;
24637;SDS011;12773;50.162;8.548;2024-02-21T11:46:44;12.33;;;3.08;;
24637;SDS011;12773;50.162;8.548;2024-02-21T11:49:36;12.60;;;3.02;;
24637;SDS011;12773;50.162;8.548;2024-02-21T11:52:28;14.85;;;3.27;;
24637;SDS011;12773;50.162;8.548;2024-02-21T11:55:15;11.43;;;2.90;;
24637;SDS011;12773;50.162;8.548;2024-02-21T11:58:03;15.05;;;3.22;;
24637;SDS011;12773;50.162;8.548;2024-02-21T12:00:50;15.23;;;2.98;;
24637;SDS011;12773;50.162;8.548;2024-02-21T12:03:38;14.07;;;3.50;;
24637;SDS011;12773;50.162;8.548;2024-02-21T12:06:27;11.28;;;2.65;;
24637;SDS011;12773;50.162;8.548;2024-02-21T12:09:15;13.20;;;3.55;;
24637;SDS011;12773;50.162;8.548;2024-02-21T12:12:03;17.23;;;3.47;;
24637;SDS011;12773;50.162;8.548;2024-02-21T12:14:58;10.08;;;2.70;;
24637;SDS011;12773;50.162;8.548;2024-02-21T12:17:45;15.80;;;2.83;;
24637;SDS011;12773;50.162;8.548;2024-02-21T12:20:33;7.62;;;2.75;;
24637;SDS011;12773;50.162;8.548;2024-02-21T12:23:22;15.10;;;2.67;;
24637;SDS011;12773;50.162;8.548;2024-02-21T12:26:10;11.73;;;2.80;;
24637;SDS011;12773;50.162;8.548;2024-02-21T12:28:58;9.10;;;2.60;;
24637;SDS011;12773;50.162;8.548;2024-02-21T12:31:46;16.55;;;3.00;;
24637;SDS011;12773;50.162;8.548;2024-02-21T12:34:34;17.48;;;2.80;;
24637;SDS011;12773;50.162;8.548;2024-02-21T12:37:23;18.30;;;3.98;;
24637;SDS011;12773;50.162;8.548;2024-02-21T12:40:12;14.25;;;3.12;;
24637;SDS011;12773;50.162;8.548;2024-02-21T12:43:01;11.22;;;3.15;;
24637;SDS011;12773;50.162;8.548;2024-02-21T12:45:48;14.18;;;3.10;;
24637;SDS011;12773;50.162;8.548;2024-02-21T12:48:36;14.23;;;3.47;;
24637;SDS011;12773;50.162;8.548;2024-02-21T12:51:23;18.27;;;3.87;;
24637;SDS011;12773;50.162;8.548;2024-02-21T12:54:11;15.72;;;3.52;;
24637;SDS011;12773;50.162;8.548;2024-02-21T12:56:58;14.93;;;3.05;;
24637;SDS011;12773;50.162;8.548;2024-02-21T12:59:48;9.05;;;3.27;;
24637;SDS011;12773;50.162;8.548;2024-02-21T13:02:36;10.78;;;2.60;;
24637;SDS011;12773;50.162;8.548;2024-02-21T13:05:26;13.03;;;3.40;;
24637;SDS011;12773;50.162;8.548;2024-02-21T13:08:14;17.75;;;3.22;;
24637;SDS011;12773;50.162;8.548;2024-02-21T13:11:02;16.07;;;2.92;;
24637;SDS011;12773;50.162;8.548;2024-02-21T13:13:49;11.75;;;3.30;;
24637;SDS011;12773;50.162;8.548;2024-02-21T13:16:37;13.20;;;3.20;;
24637;SDS011;12773;50.162;8.548;2024-02-21T13:19:28;12.37;;;3.62;;
24637;SDS011;12773;50.162;8.548;2024-02-21T13:22:16;9.60;;;3.12;;
24637;SDS011;12773;50.162;8.548;2024-02-21T13:25:05;12.07;;;3.33;;
24637;SDS011;12773;50.162;8.548;2024-02-21T13:27:53;11.25;;;3.70;;
24637;SDS011;12773;50.162;8.548;2024-02-21T13:30:42;9.83;;;3.20;;
24637;SDS011;12773;50.162;8.548;2024-02-21T13:33:29;15.65;;;3.72;;
24637;SDS011;12773;50.162;8.548;2024-02-21T13:36:17;9.68;;;3.10;;
24637;SDS011;12773;50.162;8.548;2024-02-21T13:39:04;11.18;;;2.60;;
24637;SDS011;12773;50.162;8.548;2024-02-21T13:41:54;12.03;;;3.20;;
24637;SDS011;12773;50.162;8.548;2024-02-21T13:44:41;20.08;;;3.20;;
24637;SDS011;12773;50.162;8.548;2024-02-21T13:47:28;11.63;;;3.20;;
24637;SDS011;12773;50.162;8.548;2024-02-21T13:50:16;13.25;;;2.77;;
24637;SDS011;12773;50.162;8.548;2024-02-21T13:53:05;11.70;;;2.98;;
24637;SDS011;12773;50.162;8.548;2024-02-21T13:55:52;11.43;;;2.67;;
24637;SDS011;12773;50.162;8.548;2024-02-21T13:58:40;14.15;;;3.10;;
24637;SDS011;12773;50.162;8.548;2024-02-21T14:01:27;11.30;;;2.60;;
24637;SDS011;12773;50.162;8.548;2024-02-21T14:04:15;9.53;;;3.12;;
24637;SDS011;12773;50.162;8.548;2024-02-21T14:07:02;12.13;;;3.20;;
24637;SDS011;12773;50.162;8.548;2024-02-21T14:09:50;9.65;;;2.52;;
24637;SDS011;12773;50.162;8.548;2024-02-21T14:12:37;10.10;;;2.98;;
24637;SDS011;12773;50.162;8.548;2024-02-21T14:15:25;14.50;;;3.02;;
24637;SDS011;12773;50.162;8.548;2024-02-21T14:18:13;7.08;;;2.00;;
24637;SDS011;12773;50.162;8.548;2024-02-21T14:21:01;10.23;;;2.60;;
24637;SDS011;12773;50.162;8.548;2024-02-21T14:23:49;9.65;;;2.35;;
24637;SDS011;12773;50.162;8.548;2024-02-21T14:26:38;11.75;;;2.65;;
24637;SDS011;12773;50.162;8.548;2024-02-21T14:29:26;9.75;;;2.75;;
24637;SDS011;12773;50.162;8.548;2024-02-21T14:32:14;7.25;;;2.17;;
24637;SDS011;12773;50.162;8.548;2024-02-21T14:35:02;10.50;;;2.70;;
24637;SDS011;12773;50.162;8.548;2024-02-21T14:37:51;9.05;;;2.12;;
24637;SDS011;12773;50.162;8.548;2024-02-21T14:40:40;13.50;;;2.87;;
24637;SDS011;12773;50.162;8.548;2024-02-21T14:43:28;7.67;;;2.25;;
24637;SDS011;12773;50.162;8.548;2024-02-21T14:46:16;10.38;;;2.55;;
24637;SDS011;12773;50.162;8.548;2024-02-21T14:49:03;9.28;;;2.52;;
24637;SDS011;12773;50.162;8.548;2024-02-21T14:51:51;7.05;;;2.10;;
24637;SDS011;12773;50.162;8.548;2024-02-21T14:54:38;8.93;;;2.42;;
24637;SDS011;12773;50.162;8.548;2024-02-21T14:57:27;10.58;;;2.25;;
24637;SDS011;12773;50.162;8.548;2024-02-21T15:00:15;11.75;;;2.60;;
24637;SDS011;12773;50.162;8.548;2024-02-21T15:03:03;10.82;;;2.60;;
24637;SDS011;12773;50.162;8.548;2024-02-21T15:05:50;11.03;;;2.05;;
24637;SDS011;12773;50.162;8.548;2024-02-21T15:08:38;12.93;;;2.50;;
24637;SDS011;12773;50.162;8.548;2024-02-21T15:11:25;10.98;;;2.27;;
24637;SDS011;12773;50.162;8.548;2024-02-21T15:14:13;9.05;;;2.12;;
24637;SDS011;12773;50.162;8.548;2024-02-21T15:17:00;8.38;;;2.50;;
24637;SDS011;12773;50.162;8.548;2024-02-21T15:19:48;8.23;;;2.05;;
24637;SDS011;12773;50.162;8.548;2024-02-21T15:22:35;8.23;;;2.42;;
24637;SDS011;12773;50.162;8.548;2024-02-21T15:25:23;9.48;;;2.37;;
24637;SDS011;12773;50.162;8.548;2024-02-21T15:28:11;7.92;;;2.27;;
24637;SDS011;12773;50.162;8.548;2024-02-21T15:30:59;9.30;;;2.22;;
24637;SDS011;12773;50.162;8.548;2024-02-21T15:33:46;14.83;;;2.40;;
24637;SDS011;12773;50.162;8.548;2024-02-21T15:36:34;10.48;;;2.37;;
24637;SDS011;12773;50.162;8.548;2024-02-21T15:39:22;13.75;;;3.00;;
24637;SDS011;12773;50.162;8.548;2024-02-21T15:42:11;8.13;;;2.35;;
24637;SDS011;12773;50.162;8.548;2024-02-21T15:44:58;9.28;;;2.80;;
24637;SDS011;12773;50.162;8.548;2024-02-21T15:47:50;10.72;;;3.27;;
24637;SDS011;12773;50.162;8.548;2024-02-21T15:50:39;12.37;;;2.90;;
24637;SDS011;12773;50.162;8.548;2024-02-21T15:53:27;13.95;;;3.58;;
24637;SDS011;12773;50.162;8.548;2024-02-21T15:56:14;10.65;;;3.17;;
24637;SDS011;12773;50.162;8.548;2024-02-21T15:59:02;8.48;;;3.10;;
24637;SDS011;12773;50.162;8.548;2024-02-21T16:01:50;14.47;;;3.05;;
24637;SDS011;12773;50.162;8.548;2024-02-21T16:04:38;9.50;;;2.83;;
24637;SDS011;12773;50.162;8.548;2024-02-21T16:07:28;8.93;;;2.80;;
24637;SDS011;12773;50.162;8.548;2024-02-21T16:10:16;14.87;;;3.45;;
24637;SDS011;12773;50.162;8.548;2024-02-21T16:13:04;14.10;;;3.08;;
24637;SDS011;12773;50.162;8.548;2024-02-21T16:15:51;11.15;;;2.58;;
24637;SDS011;12773;50.162;8.548;2024-02-21T16:18:39;9.73;;;2.90;;
24637;SDS011;12773;50.162;8.548;2024-02-21T16:21:27;10.13;;;3.52;;
24637;SDS011;12773;50.162;8.548;2024-02-21T16:24:14;15.20;;;3.15;;
24637;SDS011;12773;50.162;8.548;2024-02-21T16:27:02;9.43;;;2.72;;
24637;SDS011;12773;50.162;8.548;2024-02-21T16:29:51;8.65;;;3.22;;
24637;SDS011;12773;50.162;8.548;2024-02-21T16:32:39;9.30;;;3.30;;
24637;SDS011;12773;50.162;8.548;2024-02-21T16:35:28;10.05;;;2.83;;
24637;SDS011;12773;50.162;8.548;2024-02-21T16:38:15;12.68;;;4.12;;
24637;SDS011;12773;50.162;8.548;2024-02-21T16:41:04;13.05;;;3.87;;